Flugwetter Augsburg

[source: ADDS]
METAR
EDMA 201950Z 12004KT 9999 OVC012 04/02 Q1013 =
TAF EDMA 201700Z 2018/2103 06003KT 9999 OVC015 TEMPO 2018/2103 BKN012
TAF
TAF EDMA 201700Z 2018/2103 06003KT 9999 OVC015 TEMPO 2018/2103 BKN012 =
Cookies erleichtern die Bereitstellung unserer Dienste. Mit der Nutzung unserer Dienste erklären Sie sich damit einverstanden, dass wir Cookies verwenden.
Weitere Informationen Ok